< < Back
Terminal Aerodrome Forecast


Current Version              Previous Versions:   1  2  3  4  5  6  7  8  9  

Terminal Aerodrome Forecast

877
FTUS42 KTAE 261120
TAFTLH
TAF
KTLH 261120Z 2612/2712 07007KT P6SM SCT250=

Latest METAR

005
SAUS80 KWBC 261700
MTRTLH
METAR KTLH 261653Z COR 05007KT 10SM SCT048 BKN250 33/19 A3005 RMK AO2
SLP173 T03330194


USA.gov is the U.S. government's official web portal to all federal, state and local government web resources and services.